• Join FlightAware (Why Join?)
  • Login
  • US Flag 
06:18PM EDT


 

Airport Tracker/Info


-or-


 

Live Flight TrackerFlight Track Log ✈ SWA385 ✈ 08-Jul-2013 ✈ KMDW - KSMF

Flight Track Log - Related Links

Times and Time Zones

All times are in EDT time to prevent confusion due to time zone crossing. See the SWA385 flight status page for this flight to view local times or setup timezone preferences in your user account.

Time Position Orientation Groundspeed Altitude Reporting Facility
EDT Latitude Longitude Course Direction KTS MPH feet Rate Location/Type
07:30PM 41.7556 -87.8211 239° Southwest 181 208 3,300  Level Chicago Center
07:31PM 41.7411 -87.9017 257° West 214 246 6,100 3,120 Climbing Chicago Center
07:32PM 41.7650 -88.0061 287° West 255 293 9,700 2,820 Climbing Chicago Center
07:33PM 41.7800 -88.1056 281° West 282 325 12,000 1,380 Climbing Chicago Center
07:34PM 41.7728 -88.2136 265° West 295 339 12,600 1,080 Climbing Chicago Center
07:35PM 41.8203 -88.3172 302° West 339 390 14,300 2,040 Climbing Chicago Center
07:36PM 41.8894 -88.4447 306° West 354 407 16,900 2,400 Climbing Chicago Center
07:37PM 41.9539 -88.5597 307° West 379 436 19,300 2,100 Climbing Chicago Center
07:38PM 42.0186 -88.6744 307° West 387 445 21,300 1,920 Climbing Chicago Center
07:39PM 42.0425 -88.8217 282° West 409 471 23,300 1,800 Climbing Chicago Center
07:40PM 42.0983 -88.9639 298° West 409 471 25,100 1,500 Climbing Chicago Center
07:41PM 42.1522 -89.1050 297° West 419 482 26,500 1,320 Climbing Chicago Center
07:42PM 42.1836 -89.2600 285° West 454 522 27,900 1,620 Climbing Chicago Center
07:43PM 42.1753 -89.4553 267° West 446 513 29,900 1,800 Climbing Chicago Center
07:44PM 42.1708 -89.6219 268° West 445 512 31,700 1,080 Climbing Chicago Center
07:45PM 42.1628 -89.7847 266° West 438 504 32,200 1,380 Climbing Chicago Center
07:46PM 42.1564 -89.9594 267° West 430 495 34,600 1,620 Climbing Chicago Center
07:47PM 42.1500 -90.1117 267° West 413 475 35,600 660 Climbing Chicago Center
07:48PM 42.1536 -90.2675 272° West 420 483 36,000 180 Climbing Chicago Center
07:49PM 42.1606 -90.4228 274° West 420 483 36,000  Level Chicago Center
07:50PM 42.1661 -90.5775 273° West 418 481 36,000  Level Chicago Center
07:51PM 42.1719 -90.7622 273° West 416 479 36,000  Level Chicago Center
07:52PM 42.1761 -90.9175 272° West 417 480 36,000 420 Level Chicago Center
07:54PM 42.1689 -91.0714 266° West 419 482 36,900 840 Climbing Chicago Center
07:55PM 42.1492 -91.2242 260° West 416 479 37,800 480 Climbing Chicago Center
07:56PM 42.1317 -91.3775 261° West 416 479 38,000 60 Climbing Chicago Center
07:57PM 42.1122 -91.5322 260° West 419 482 38,000  Level Chicago Center
07:58PM 42.0911 -91.7175 261° West 420 483 38,000  Level Chicago Center
07:59PM 42.0744 -91.8736 262° West 422 486 38,000  Level Chicago Center
08:00PM 42.0575 -92.0294 262° West 423 487 38,000  Level Chicago Center
08:01PM 42.0403 -92.1836 261° West 420 483 38,000  Level Chicago Center
08:02PM 42.0253 -92.3397 263° West 421 484 38,000  Level Chicago Center
08:03PM 42.0033 -92.5236 261° West 418 481 38,000  Level Chicago Center
08:04PM 41.9867 -92.6778 262° West 420 483 38,000  Level Chicago Center
08:05PM 41.9708 -92.8319 262° West 419 482 38,000  Level Chicago Center
08:06PM 41.9725 -92.9900 271° West 422 486 38,000  Level Chicago Center
08:07PM 41.9733 -93.1458 270° West 422 486 38,000  Level Chicago Center
08:08PM 41.9781 -93.3347 272° West 425 489 38,000  Level Chicago Center
08:09PM 41.9803 -93.4917 271° West 425 489 38,000  Level Chicago Center
08:10PM 41.9819 -93.6492 271° West 424 488 38,000  Level Chicago Center
08:11PM 41.9850 -93.8061 272° West 425 489 38,000  Level Chicago Center
08:12PM 41.9853 -93.9639 270° West 425 489 38,000  Level Chicago Center
08:13PM 41.9875 -94.1525 271° West 424 488 38,000  Level Chicago Center
08:14PM 41.9883 -94.3092 270° West 422 486 38,000  Level Chicago Center
08:15PM 41.9914 -94.5058 271° West 423 487 38,000  Level Minneapolis Center
08:16PM 41.9922 -94.6617 270° West 421 484 38,000  Level Minneapolis Center
08:18PM 41.9936 -94.8194 271° West 424 488 38,000  Level Minneapolis Center
08:19PM 41.9931 -94.9747 270° West 418 481 38,000  Level Minneapolis Center
08:20PM 41.9942 -95.1319 271° West 422 486 38,000  Level Minneapolis Center
08:21PM 41.9933 -95.3225 270° West 426 490 38,000  Level Minneapolis Center
08:22PM 41.9928 -95.4800 270° West 424 488 38,000  Level Minneapolis Center
08:23PM 41.9931 -95.6392 270° West 428 493 38,000  Level Minneapolis Center
08:24PM 41.9908 -95.7956 269° West 423 487 38,000  Level Minneapolis Center
08:25PM 41.9903 -95.9519 270° West 421 484 38,000  Level Minneapolis Center
08:26PM 41.9894 -96.1094 270° West 423 487 38,000  Level Minneapolis Center
08:27PM 41.9878 -96.2947 269° West 418 481 38,000  Level Minneapolis Center
08:28PM 41.9864 -96.4497 269° West 418 481 38,000  Level Minneapolis Center
08:29PM 41.9833 -96.6044 269° West 417 480 38,000  Level Minneapolis Center
08:30PM 41.9822 -96.7597 270° West 416 479 38,000  Level Minneapolis Center
08:31PM 41.9803 -96.9136 269° West 415 478 38,000  Level Minneapolis Center
08:32PM 41.9775 -97.0678 269° West 414 476 38,000  Level Minneapolis Center
08:33PM 41.9744 -97.2228 269° West 416 479 38,000  Level Minneapolis Center
08:34PM 41.9706 -97.4108 268° West 418 481 38,000  Level Minneapolis Center
08:35PM 41.9669 -97.5669 268° West 420 483 38,000  Level Minneapolis Center
08:36PM 41.9639 -97.7239 269° West 422 486 38,000  Level Minneapolis Center
08:37PM 41.9606 -97.8797 268° West 419 482 38,000  Level Minneapolis Center
08:38PM 41.9567 -98.0356 268° West 419 482 38,000  Level Minneapolis Center
08:39PM 41.9533 -98.2128 269° West 416 479 38,000  Level Minneapolis Center
08:40PM 41.9481 -98.3664 267° West 414 476 38,000  Level Minneapolis Center
08:41PM 41.9442 -98.5192 268° West 412 474 38,000  Level Minneapolis Center
08:42PM 41.9394 -98.6717 268° West 411 473 38,000  Level Minneapolis Center
08:43PM 41.9350 -98.8228 268° West 409 471 38,000  Level Minneapolis Center
08:44PM 41.9292 -99.0050 268° West 409 471 38,000  Level Minneapolis Center
08:45PM 41.9242 -99.1258 267° West 410 472 38,000  Level Denver Center
08:46PM 41.9192 -99.2783 268° West 410 472 38,000  Level Denver Center
08:47PM 41.9142 -99.3972 267° West 404 465 38,000  Level Denver Center
08:48PM 41.9067 -99.6081 267° West 404 465 38,000  Level Denver Center
08:49PM 41.9008 -99.7492 267° West 407 468 38,000  Level Denver Center
08:50PM 41.8939 -99.9203 267° West 412 474 38,000  Level Denver Center
08:51PM 41.8867 -100.0658 266° West 410 472 38,000  Level Denver Center
08:52PM 41.8803 -100.2119 267° West 410 472 38,000  Level Denver Center
08:53PM 41.8733 -100.3839 267° West 413 475 38,000  Level Denver Center
08:54PM 41.8669 -100.5319 267° West 415 478 38,000  Level Denver Center
08:55PM 41.8586 -100.7047 266° West 416 479 38,000  Level Denver Center
08:57PM 41.8517 -100.8514 266° West 414 476 38,000  Level Denver Center
08:58PM 41.8419 -101.0236 266° West 416 479 38,000  Level Denver Center
08:59PM 41.8347 -101.1722 266° West 417 480 38,000  Level Denver Center
09:00PM 41.8267 -101.3442 266° West 417 480 38,000  Level Denver Center
09:01PM 41.8200 -101.4675 266° West 417 480 38,000  Level Denver Center
09:02PM 41.8089 -101.6400 265° West 416 479 38,000  Level Denver Center
09:03PM 41.8008 -101.8092 266° West 409 471 38,000  Level Denver Center
09:04PM 41.7911 -101.9547 265° West 409 471 38,000  Level Denver Center
09:05PM 41.7800 -102.1233 265° West 407 468 38,000  Level Denver Center
09:06PM 41.7725 -102.2561 266° West 400 460 38,000  Level Denver Center
09:07PM 41.7619 -102.4211 265° West 398 458 38,000  Level Denver Center
09:08PM 41.7522 -102.5739 265° West 403 464 38,000  Level Denver Center
09:09PM 41.7425 -102.7319 265° West 404 465 38,000  Level Denver Center
09:10PM 41.7322 -102.8750 265° West 405 466 38,000  Level Denver Center
09:11PM 41.7206 -103.0428 265° West 405 466 38,000  Level Denver Center
09:12PM 41.7114 -103.1867 265° West 405 466 38,000  Level Denver Center
09:13PM 41.7008 -103.3308 264° West 406 467 38,000  Level Denver Center
09:14PM 41.6883 -103.4994 264° West 407 468 38,000  Level Denver Center
09:15PM 41.6775 -103.6436 264° West 407 468 38,000  Level Denver Center
09:16PM 41.6656 -103.8128 265° West 407 468 38,000  Level Denver Center
09:17PM 41.6544 -103.9578 264° West 409 471 38,000  Level Denver Center
09:18PM 41.6431 -104.1033 264° West 410 472 38,000  Level Denver Center
09:19PM 41.6289 -104.2742 264° West 414 476 38,000  Level Denver Center
09:21PM 41.6095 -104.4825 263° West  Level FlightAware Approximate
09:21PM 41.6039 -104.5878 263° West 411 473 38,000  Level Denver Center
09:22PM 41.5908 -104.7353 263° West 416 479 38,000  Level Denver Center
09:23PM 41.5800 -104.8800 264° West 411 473 38,000  Level Denver Center
09:24PM 41.5650 -105.0489 263° West 410 472 38,000  Level Denver Center
09:25PM 41.5525 -105.1925 263° West 407 468 38,000  Level Denver Center
09:26PM 41.5378 -105.3578 263° West 403 464 38,000  Level Denver Center
09:27PM 41.5250 -105.5006 263° West 404 465 38,000  Level Denver Center
09:29PM 41.5117 -105.6417 263° West 401 461 38,000  Level Denver Center
09:30PM 41.4939 -105.8294 263° West 398 458 38,000  Level Denver Center
09:31PM 41.4817 -105.9714 263° West 402 463 38,000  Level Denver Center
09:32PM 41.4661 -106.1372 263° West 404 465 38,000  Level Denver Center
09:33PM 41.4514 -106.2767 262° West 398 458 38,000  Level Denver Center
09:34PM 41.4364 -106.4400 263° West 397 457 38,000  Level Denver Center
09:35PM 41.4231 -106.5742 262° West 395 455 38,000  Level Denver Center
09:36PM 41.4058 -106.7383 262° West 401 461 38,000  Level Denver Center
09:37PM 41.3919 -106.8797 263° West 402 463 38,000  Level Denver Center
09:38PM 41.3750 -107.0447 262° West 404 465 38,000  Level Denver Center
09:39PM 41.3594 -107.1869 262° West 405 466 38,000  Level Denver Center
09:40PM 41.3447 -107.3283 262° West 405 466 38,000  Level Denver Center
09:41PM 41.3267 -107.4928 262° West 402 463 38,000  Level Denver Center
09:42PM 41.3122 -107.6328 262° West 402 463 38,000  Level Denver Center
09:43PM 41.2944 -107.7947 262° West 397 457 38,000  Level Denver Center
09:44PM 41.2786 -107.9325 261° West 394 453 38,000  Level Denver Center
09:45PM 41.2608 -108.0928 262° West 392 451 38,000  Level Denver Center
09:46PM 41.2439 -108.2314 261° West 396 456 38,000  Level Denver Center
09:47PM 41.2292 -108.3692 262° West 394 453 38,000  Level Denver Center
09:48PM 41.2100 -108.5300 261° West 394 453 38,000  Level Denver Center
09:49PM 41.1928 -108.6703 261° West 396 456 38,000  Level Salt Lake Center
09:50PM 41.1731 -108.8333 261° West 398 458 38,000  Level Salt Lake Center
09:51PM 41.1561 -108.9742 261° West 402 463 38,000  Level Salt Lake Center
09:52PM 41.1356 -109.1358 260° West 396 456 38,000  Level Salt Lake Center
09:53PM 41.1183 -109.2758 261° West 398 458 38,000  Level Salt Lake Center
09:54PM 41.1014 -109.4147 261° West 397 457 38,000  Level Salt Lake Center
09:55PM 41.0808 -109.5756 260° West 394 453 38,000  Level Salt Lake Center
09:56PM 41.0625 -109.7125 260° West 394 453 38,000  Level Salt Lake Center
09:57PM 41.0456 -109.8511 261° West 398 458 38,000  Level Salt Lake Center
09:58PM 41.0242 -110.0114 260° West 396 456 38,000  Level Salt Lake Center
09:59PM 41.0064 -110.1508 260° West 401 461 38,000  Level Salt Lake Center
10:00PM 40.9844 -110.3106 260° West 397 457 38,000  Level Salt Lake Center
10:01PM 40.9664 -110.4475 260° West 394 453 38,000  Level Salt Lake Center
10:02PM 40.9453 -110.6017 260° West 394 453 38,000  Level Salt Lake Center
10:03PM 40.9261 -110.7411 260° West 387 445 38,000  Level Salt Lake Center
10:04PM 40.9067 -110.8800 260° West 386 444 38,000  Level Salt Lake Center
10:05PM 40.8869 -111.0211 260° West 389 448 38,000  Level Salt Lake Center
10:07PM 40.8669 -111.1622 259° West 389 448 38,000  Level Salt Lake Center
10:08PM 40.8469 -111.3047 260° West 394 453 38,000  Level Salt Lake Center
10:09PM 40.8272 -111.4453 260° West 390 449 38,000  Level Salt Lake Center
10:10PM 40.8067 -111.5875 259° West 391 450 38,000  Level Salt Lake Center
10:11PM 40.7858 -111.7292 259° West 390 449 38,000  Level Salt Lake Center
10:12PM 40.7592 -111.9025 259° West 399 459 38,000  Level Salt Lake Center
10:13PM 40.7364 -112.0472 258° West 408 470 38,000  Level Salt Lake Center
10:14PM 40.7161 -112.1914 260° West 403 464 38,000  Level Salt Lake Center
10:15PM 40.6953 -112.3344 259° West 397 457 38,000  Level Salt Lake Center
10:16PM 40.6742 -112.4756 259° West 393 452 38,000  Level Salt Lake Center
10:17PM 40.6528 -112.6169 259° West 389 448 38,000  Level Salt Lake Center
10:18PM 40.6308 -112.7592 259° West 395 455 38,000  Level Salt Lake Center
10:19PM 40.6094 -112.8986 259° West 389 448 38,000  Level Salt Lake Center
10:20PM 40.5853 -113.0378 257° West 390 449 38,000  Level Salt Lake Center
10:21PM 40.5583 -113.2081 258° West 398 458 38,000  Level Salt Lake Center
10:22PM 40.5342 -113.3464 257° West 391 450 38,000  Level Salt Lake Center
10:23PM 40.5122 -113.4858 258° West 391 450 38,000  Level Salt Lake Center
10:24PM 40.4897 -113.6244 258° West 390 449 38,000  Level Salt Lake Center
10:25PM 40.4658 -113.7644 257° West 392 451 38,000  Level Salt Lake Center
10:26PM 40.4433 -113.9025 258° West 389 448 38,000  Level Salt Lake Center
10:27PM 40.4192 -114.0414 257° West 391 450 38,000  Level Salt Lake Center
10:28PM 40.3956 -114.1811 258° West 393 452 38,000  Level Salt Lake Center
10:29PM 40.3678 -114.3511 258° West 397 457 38,000  Level Salt Lake Center
10:30PM 40.3433 -114.4906 257° West 395 455 38,000  Level Salt Lake Center
10:31PM 40.3183 -114.6300 257° West 395 455 38,000  Level Salt Lake Center
10:32PM 40.2942 -114.7681 257° West 391 450 38,000  Level Salt Lake Center
10:33PM 40.2706 -114.9067 257° West 391 450 38,000  Level Salt Lake Center
10:34PM 40.2467 -115.0442 257° West 391 450 38,000  Level Salt Lake Center
10:35PM 40.2219 -115.1811 257° West 388 447 38,000  Level Salt Lake Center
10:36PM 40.1978 -115.3178 257° West 387 445 38,000  Level Salt Lake Center
10:37PM 40.1669 -115.4819 256° West 389 448 38,000  Level Salt Lake Center
10:38PM 40.1428 -115.6206 257° West 391 450 38,000  Level Salt Lake Center
10:39PM 40.1203 -115.7594 258° West 391 450 38,000  Level Salt Lake Center
10:40PM 40.0944 -115.8975 256° West 392 451 38,000  Level Salt Lake Center
10:41PM 40.0597 -116.0331 252° West 393 452 38,000  Level Salt Lake Center
10:42PM 40.0350 -116.1847 258° West 399 459 38,000  Level Salt Lake Center
10:43PM 40.0089 -116.3256 256° West 401 461 38,000  Level Salt Lake Center
10:44PM 39.9817 -116.4628 256° West 395 455 38,000  Level Salt Lake Center
10:45PM 39.9558 -116.6014 256° West 394 453 38,000  Level Salt Lake Center
10:46PM 39.9281 -116.7392 255° West 394 453 38,000  Level Salt Lake Center
10:48PM 39.9017 -116.8761 256° West 392 451 38,000  Level Salt Lake Center
10:49PM 39.8697 -117.0411 256° West 392 451 38,000  Level Salt Lake Center
10:50PM 39.8414 -117.1764 255° West 391 450 38,000  Level Salt Lake Center
10:51PM 39.8144 -117.3128 256° West 389 448 38,000  Level Salt Lake Center
10:52PM 39.7875 -117.4478 255° West 388 447 38,000  Level Salt Lake Center
10:53PM 39.7611 -117.5839 256° West 387 445 38,000  Level Salt Lake Center
10:54PM 39.7328 -117.7183 255° West 387 445 38,000  Level Salt Lake Center
10:55PM 39.7056 -117.8553 256° West 390 449 38,000  Level Salt Lake Center
10:56PM 39.6772 -117.9911 255° West 391 450 38,000  Level Salt Lake Center
10:57PM 39.6428 -118.1550 255° West 393 452 38,000  Level Salt Lake Center
10:58PM 39.6144 -118.2933 255° West 396 456 38,000 -540 Level Salt Lake Center
10:59PM 39.5864 -118.4286 255° West 393 452 37,000 -1,020 Descending Salt Lake Center
11:00PM 39.5572 -118.5658 255° West 396 456 36,000 -960 Descending Salt Lake Center
11:01PM 39.5300 -118.7019 256° West 398 458 35,100 -960 Descending Salt Lake Center
11:02PM 39.4886 -118.8928 254° West 403 464 33,800 -1,080 Descending Oakland Center
11:03PM 39.4558 -119.0272 253° West 399 459 32,700 -1,080 Descending Oakland Center
11:04PM 39.4286 -119.1617 255° West 392 451 31,700 -1,020 Descending Oakland Center
11:05PM 39.3986 -119.2964 254° West 391 450 30,700 -1,080 Descending Oakland Center
11:06PM 39.3633 -119.4547 254° West 385 443 29,500 -1,080 Descending Oakland Center
11:07PM 39.3347 -119.5864 254° West 381 438 28,500 -960 Descending Oakland Center
11:08PM 39.3044 -119.7156 253° West 378 435 27,600 -1,020 Descending Oakland Center
11:09PM 39.2758 -119.8456 254° West 377 434 26,500 -1,080 Descending Oakland Center
11:10PM 39.2461 -119.9736 253° West 373 429 25,400 -1,440 Descending Oakland Center
11:11PM 39.2175 -120.0981 254° West 365 420 23,600 -1,680 Descending Oakland Center
11:12PM 39.1947 -120.2122 256° West 350 403 22,100 -1,800 Descending Oakland Center
11:13PM 39.1611 -120.3506 253° West 340 391 20,000 -1,920 Descending Oakland Center
11:14PM 39.1317 -120.4631 251° West 333 383 18,300 -1,740 Descending Oakland Center
11:15PM 39.1039 -120.5739 252° West 328 377 16,500 -1,140 Descending Oakland Center
11:16PM 39.0753 -120.6806 251° West 319 367 16,000 -1,140 Descending Oakland Center
11:17PM 39.0469 -120.7928 252° West 330 380 14,200 -1,680 Descending Oakland Center
11:19PM 39.0183 -120.9042 252° West 330 380 12,600 -1,620 Descending Oakland Center
11:20PM 38.9903 -121.0103 251° West 319 367 11,000 -1,380 Descending Oakland Center
11:21PM 38.9642 -121.1119 252° West 308 354 9,800 -1,500 Descending Oakland Center
11:21PM 38.9333 -121.2167 249° West 290 334 8,100 -1,680 Descending Northern Cal TRACON
11:22PM 38.9167 -121.3000 256° West 285 328 6,800 -1,200 Descending Northern Cal TRACON
11:23PM 38.8833 -121.4000 247° West 265 305 5,800 -840 Descending Northern Cal TRACON
11:24PM 38.8833 -121.5000 270° West 243 280 5,100 -840 Descending Northern Cal TRACON
11:25PM 38.8833 -121.5667 270° West 230 265 4,200 -900 Descending Northern Cal TRACON
11:27PM 38.8333 -121.6000 207° Southwest 155 178 3,300 -1,140 Descending Northern Cal TRACON
11:28PM 38.8000 -121.6000 180° South 152 175 1,900 -1,260 Descending Northern Cal TRACON
11:29PM 38.7500 -121.6000 180° South 137 158 800 -900 Descending Northern Cal TRACON
11:30PM 38.7167 -121.6000 180° South 127 146 200 -600 Descending Northern Cal TRACON
11:32PM 38.6954 -121.5908 175° South  Level Estimated